createdAt,value
2018-02-15T00:00:29.940Z,13.00
2018-02-15T00:02:57.402Z,14.07
2018-02-15T00:05:24.871Z,14.20
2018-02-15T00:07:52.340Z,13.83
2018-02-15T00:10:19.809Z,13.83
2018-02-15T00:12:48.033Z,14.00
2018-02-15T00:15:15.721Z,13.17
2018-02-15T00:17:43.222Z,12.83
2018-02-15T00:20:10.694Z,12.90
2018-02-15T00:22:38.166Z,13.07
2018-02-15T00:25:05.643Z,12.80
2018-02-15T00:27:33.106Z,12.70
2018-02-15T00:30:00.571Z,13.80
2018-02-15T00:32:28.043Z,13.17
2018-02-15T00:34:56.268Z,13.50
2018-02-15T00:37:23.737Z,13.10
2018-02-15T00:39:51.211Z,13.17
2018-02-15T00:42:18.671Z,13.63
2018-02-15T00:44:46.146Z,12.93
2018-02-15T00:47:14.377Z,13.77
2018-02-15T00:49:41.850Z,13.37
2018-02-15T00:52:10.398Z,16.83
2018-02-15T00:54:37.877Z,15.53
2018-02-15T00:57:05.350Z,15.10
2018-02-15T00:59:32.854Z,14.50
2018-02-15T01:02:00.340Z,13.77
2018-02-15T01:04:27.809Z,16.67
2018-02-15T01:06:55.274Z,12.17
2018-02-15T01:09:22.733Z,11.60
2018-02-15T01:11:50.202Z,11.93
2018-02-15T01:14:17.659Z,14.03
2018-02-15T01:16:45.138Z,13.93
2018-02-15T01:19:13.407Z,12.53
2018-02-15T01:21:41.086Z,13.60
2018-02-15T01:24:09.318Z,14.53
2018-02-15T01:26:37.051Z,20.37
2018-02-15T01:29:04.518Z,17.33
2018-02-15T01:31:31.983Z,15.33
2018-02-15T01:33:59.459Z,14.30
2018-02-15T01:36:26.931Z,10.93
2018-02-15T01:38:54.391Z,11.67
2018-02-15T01:41:21.881Z,11.47
2018-02-15T01:43:49.341Z,11.57
2018-02-15T01:46:16.828Z,12.00
2018-02-15T01:48:44.362Z,11.33
2018-02-15T01:51:11.838Z,11.60
2018-02-15T01:53:39.306Z,11.50
2018-02-15T01:56:06.772Z,11.37
2018-02-15T01:58:34.241Z,12.37
2018-02-15T02:01:01.705Z,12.50
2018-02-15T02:03:29.186Z,13.17
2018-02-15T02:05:57.410Z,11.80
2018-02-15T02:08:24.921Z,12.53
2018-02-15T02:10:52.359Z,11.47
2018-02-15T02:13:19.822Z,12.13
2018-02-15T02:15:48.075Z,11.27
2018-02-15T02:18:15.540Z,12.07
2018-02-15T02:20:43.012Z,11.33
2018-02-15T02:23:11.242Z,10.67
2018-02-15T02:25:38.715Z,11.70
2018-02-15T02:28:06.179Z,12.43
2018-02-15T02:30:33.655Z,13.80
2018-02-15T02:33:01.890Z,12.47
2018-02-15T02:35:29.347Z,12.60
2018-02-15T02:37:56.980Z,14.20
2018-02-15T02:40:24.857Z,11.93
2018-02-15T02:42:52.331Z,11.53
2018-02-15T02:45:19.805Z,12.60
2018-02-15T02:47:47.489Z,11.37
2018-02-15T02:50:15.744Z,11.73
2018-02-15T02:52:43.197Z,10.67
2018-02-15T02:55:12.171Z,10.93
2018-02-15T02:57:39.640Z,10.17
2018-02-15T03:00:07.112Z,10.77
2018-02-15T03:02:34.572Z,9.53
2018-02-15T03:05:02.292Z,9.73
2018-02-15T03:07:29.768Z,9.63
2018-02-15T03:09:57.221Z,9.73
2018-02-15T03:12:25.458Z,10.30
2018-02-15T03:14:52.932Z,9.70
2018-02-15T03:17:20.398Z,8.83
2018-02-15T03:19:47.870Z,9.13
2018-02-15T03:22:15.338Z,9.33
2018-02-15T03:24:42.803Z,9.50
2018-02-15T03:27:10.267Z,10.43
2018-02-15T03:29:37.738Z,9.90
2018-02-15T03:32:05.198Z,9.93
2018-02-15T03:34:33.435Z,10.10
2018-02-15T03:37:00.907Z,10.27
2018-02-15T03:39:28.369Z,8.83
2018-02-15T03:41:55.845Z,8.33
2018-02-15T03:44:24.065Z,9.17
2018-02-15T03:46:51.535Z,8.33
2018-02-15T03:49:18.988Z,8.50
2018-02-15T03:51:46.455Z,8.17
2018-02-15T03:54:13.924Z,7.53
2018-02-15T03:56:41.392Z,7.23
2018-02-15T03:59:08.861Z,7.23
2018-02-15T04:01:36.535Z,7.73
2018-02-15T04:04:04.779Z,7.20
2018-02-15T04:06:32.248Z,7.00
2018-02-15T04:08:59.708Z,6.93
2018-02-15T04:11:27.418Z,6.13
2018-02-15T04:13:54.870Z,6.70
2018-02-15T04:16:22.338Z,5.73
2018-02-15T04:18:49.805Z,5.50
2018-02-15T04:21:17.260Z,4.93
2018-02-15T04:23:44.729Z,5.00
2018-02-15T04:26:12.193Z,5.00
2018-02-15T04:28:39.678Z,5.60
2018-02-15T04:31:07.919Z,5.53
2018-02-15T04:33:35.374Z,7.13
2018-02-15T04:36:02.843Z,7.77
2018-02-15T04:38:30.306Z,7.47
2018-02-15T04:40:57.761Z,7.47
2018-02-15T04:43:25.229Z,7.07
2018-02-15T04:45:52.706Z,7.63
2018-02-15T04:48:20.188Z,7.67
2018-02-15T04:50:47.645Z,7.73
2018-02-15T04:53:15.107Z,7.30
2018-02-15T04:55:42.574Z,7.43
2018-02-15T04:58:10.034Z,7.53
2018-02-15T05:00:37.505Z,7.10
2018-02-15T05:03:04.962Z,7.67
2018-02-15T05:05:32.426Z,7.23
2018-02-15T05:07:59.879Z,6.90
2018-02-15T05:10:27.345Z,7.43
2018-02-15T05:12:54.805Z,7.37
2018-02-15T05:15:22.273Z,7.97
2018-02-15T05:17:49.727Z,7.50
2018-02-15T05:20:17.190Z,6.50
2018-02-15T05:22:44.646Z,6.27
2018-02-15T05:25:12.118Z,5.33
2018-02-15T05:27:40.338Z,5.60
2018-02-15T05:30:07.804Z,5.20
2018-02-15T05:32:35.269Z,5.03
2018-02-15T05:35:02.742Z,4.67
2018-02-15T05:37:30.197Z,4.10
2018-02-15T05:39:57.667Z,4.77
2018-02-15T05:42:25.122Z,4.60
2018-02-15T05:44:52.590Z,4.50
2018-02-15T05:47:20.064Z,4.20
2018-02-15T05:49:47.530Z,4.17
2018-02-15T05:52:14.978Z,4.20
2018-02-15T05:54:42.489Z,4.00
2018-02-15T05:57:09.961Z,3.90
2018-02-15T05:59:37.415Z,4.10
2018-02-15T06:02:04.898Z,4.00
2018-02-15T06:04:33.118Z,4.10
2018-02-15T06:07:00.800Z,4.10
2018-02-15T06:09:28.259Z,3.80
2018-02-15T06:11:55.730Z,4.27
2018-02-15T06:14:23.183Z,4.17
2018-02-15T06:16:50.897Z,4.20
2018-02-15T06:19:18.375Z,4.53
2018-02-15T06:21:45.825Z,5.03
2018-02-15T06:24:13.285Z,4.77
2018-02-15T06:26:40.737Z,4.77
2018-02-15T06:29:08.193Z,4.50
2018-02-15T06:31:35.654Z,4.53
2018-02-15T06:34:03.122Z,4.57
2018-02-15T06:36:30.610Z,4.90
2018-02-15T06:38:58.833Z,4.70
2018-02-15T06:41:26.297Z,4.60
2018-02-15T06:43:53.749Z,4.60
2018-02-15T06:46:21.219Z,4.60
2018-02-15T06:48:48.676Z,4.00
2018-02-15T06:51:16.145Z,4.03
2018-02-15T06:53:43.619Z,4.00
2018-02-15T06:56:11.081Z,4.00
2018-02-15T06:58:38.538Z,4.10
2018-02-15T07:01:06.044Z,3.70
2018-02-15T07:03:34.267Z,4.20
2018-02-15T07:06:01.748Z,3.93
2018-02-15T07:08:29.975Z,4.07
2018-02-15T07:10:57.430Z,3.47
2018-02-15T07:13:24.903Z,3.83
2018-02-15T07:15:52.373Z,4.03
2018-02-15T07:18:19.827Z,3.90
2018-02-15T07:20:47.294Z,4.47
2018-02-15T07:23:15.526Z,4.50
2018-02-15T07:25:42.977Z,4.53
2018-02-15T07:28:10.441Z,4.40
2018-02-15T07:30:37.911Z,5.30
2018-02-15T07:33:05.366Z,4.90
2018-02-15T07:35:32.831Z,5.00
2018-02-15T07:38:00.289Z,4.33
2018-02-15T07:40:27.770Z,4.43
2018-02-15T07:42:55.233Z,5.20
2018-02-15T07:45:23.451Z,4.10
2018-02-15T07:47:50.914Z,3.90
2018-02-15T07:50:18.365Z,3.70
2018-02-15T07:52:45.842Z,3.57
2018-02-15T07:55:13.305Z,3.93
2018-02-15T07:57:40.775Z,3.70
2018-02-15T08:00:08.237Z,3.70
2018-02-15T08:02:35.695Z,3.83
2018-02-15T08:05:03.158Z,3.47
2018-02-15T08:07:30.626Z,3.90
2018-02-15T08:09:58.860Z,3.63
2018-02-15T08:12:26.309Z,3.80
2018-02-15T08:14:53.775Z,3.90
2018-02-15T08:17:21.234Z,3.80
2018-02-15T08:19:48.696Z,3.90
2018-02-15T08:22:16.172Z,4.00
2018-02-15T08:24:43.641Z,3.63
2018-02-15T08:27:11.868Z,3.87
2018-02-15T08:29:39.337Z,3.67
2018-02-15T08:32:06.821Z,3.60
2018-02-15T08:34:35.059Z,3.40
2018-02-15T08:37:02.526Z,3.70
2018-02-15T08:39:29.986Z,3.50
2018-02-15T08:41:58.209Z,3.57
2018-02-15T08:44:26.433Z,4.13
2018-02-15T08:46:53.902Z,3.80
2018-02-15T08:49:21.356Z,4.33
2018-02-15T08:51:48.815Z,3.87
2018-02-15T08:54:16.274Z,3.90
2018-02-15T08:56:43.742Z,3.80
2018-02-15T08:59:11.203Z,3.70
2018-02-15T09:01:38.666Z,4.10
2018-02-15T09:04:06.891Z,3.43
2018-02-15T09:06:34.353Z,2.87
2018-02-15T09:09:01.847Z,3.43
2018-02-15T09:11:30.090Z,3.30
2018-02-15T09:13:57.546Z,3.20
2018-02-15T09:16:25.016Z,3.53
2018-02-15T09:18:53.279Z,4.03
2018-02-15T09:21:20.705Z,3.53
2018-02-15T09:23:48.161Z,3.67
2018-02-15T09:26:15.614Z,3.90
2018-02-15T09:28:43.075Z,3.73
2018-02-15T09:31:10.529Z,3.90
2018-02-15T09:33:37.990Z,4.23
2018-02-15T09:36:05.451Z,4.10
2018-02-15T09:38:32.911Z,3.37
2018-02-15T09:41:00.367Z,3.87
2018-02-15T09:43:27.829Z,3.97
2018-02-15T09:45:55.290Z,3.77
2018-02-15T09:48:22.771Z,4.00
2018-02-15T09:50:50.238Z,3.93
2018-02-15T09:53:17.694Z,3.80
2018-02-15T09:55:45.163Z,3.50
2018-02-15T09:58:13.397Z,3.50
2018-02-15T10:00:40.854Z,3.47
2018-02-15T10:03:08.306Z,4.30
2018-02-15T10:05:35.765Z,3.80
2018-02-15T10:08:03.221Z,4.13
2018-02-15T10:10:30.701Z,3.63
2018-02-15T10:12:58.170Z,2.90
2018-02-15T10:15:25.622Z,3.07
2018-02-15T10:17:53.083Z,3.60
2018-02-15T10:20:22.051Z,2.97
2018-02-15T10:22:49.539Z,3.60
2018-02-15T10:25:16.969Z,3.70
2018-02-15T10:27:44.422Z,3.57
2018-02-15T10:30:11.918Z,3.90
2018-02-15T10:32:39.374Z,4.00
2018-02-15T10:35:06.830Z,3.30
2018-02-15T10:37:34.542Z,3.40
2018-02-15T10:40:02.013Z,3.83
2018-02-15T10:42:29.466Z,3.37
2018-02-15T10:44:56.939Z,3.70
2018-02-15T10:47:24.391Z,3.50
2018-02-15T10:49:51.841Z,3.70
2018-02-15T10:52:19.305Z,3.73
2018-02-15T10:54:46.764Z,3.77
2018-02-15T10:57:14.223Z,4.50
2018-02-15T10:59:41.796Z,3.60
2018-02-15T11:02:14.899Z,3.77
2018-02-15T11:04:48.138Z,3.70
2018-02-15T11:07:15.590Z,3.80
2018-02-15T11:09:43.045Z,3.43
2018-02-15T11:12:10.513Z,3.60
2018-02-15T11:14:37.969Z,4.33
2018-02-15T11:17:05.432Z,3.70
2018-02-15T11:19:32.892Z,3.93
2018-02-15T11:22:00.338Z,3.77
2018-02-15T11:24:27.799Z,4.27
2018-02-15T11:26:55.293Z,3.87
2018-02-15T11:29:22.758Z,3.83
2018-02-15T11:31:50.211Z,4.13
2018-02-15T11:34:17.672Z,3.50
2018-02-15T11:36:45.128Z,3.80
2018-02-15T11:39:12.601Z,3.67
2018-02-15T11:41:40.817Z,4.17
2018-02-15T11:44:08.290Z,33.53
2018-02-15T11:46:35.763Z,6.20
2018-02-15T11:49:03.214Z,8.80
2018-02-15T11:51:30.691Z,4.77
2018-02-15T11:53:58.147Z,4.07
2018-02-15T11:56:25.621Z,3.87
2018-02-15T11:58:53.850Z,10.23
2018-02-15T12:01:21.305Z,3.63
2018-02-15T12:03:48.766Z,3.97
2018-02-15T12:06:16.234Z,3.57
2018-02-15T12:08:43.686Z,3.80
2018-02-15T12:11:11.154Z,3.70
2018-02-15T12:13:38.606Z,3.57
2018-02-15T12:16:06.832Z,3.90
2018-02-15T12:18:34.302Z,3.87
2018-02-15T12:21:01.750Z,4.10
2018-02-15T12:23:29.210Z,4.10
2018-02-15T12:25:56.660Z,3.40
2018-02-15T12:28:24.124Z,3.90
2018-02-15T12:30:51.605Z,4.20
2018-02-15T12:33:19.050Z,4.33
2018-02-15T12:35:46.513Z,3.90
2018-02-15T12:38:13.959Z,4.13
2018-02-15T12:40:41.428Z,4.33
2018-02-15T12:43:08.878Z,4.40
2018-02-15T12:45:36.344Z,4.00
2018-02-15T12:48:03.813Z,4.17
2018-02-15T12:50:31.275Z,3.70
2018-02-15T12:52:58.741Z,4.17
2018-02-15T12:55:26.192Z,4.17
2018-02-15T12:57:53.654Z,3.90
2018-02-15T13:00:21.106Z,3.77
2018-02-15T13:02:48.562Z,3.80
2018-02-15T13:05:16.013Z,3.73
2018-02-15T13:07:43.471Z,3.70
2018-02-15T13:10:10.931Z,3.60
2018-02-15T13:12:50.126Z,4.30
2018-02-15T13:15:29.663Z,4.27
2018-02-15T13:17:57.114Z,4.23
2018-02-15T13:20:24.574Z,5.13
2018-02-15T13:22:52.025Z,4.80
2018-02-15T13:25:20.254Z,4.17
2018-02-15T13:27:59.598Z,5.53
2018-02-15T13:30:27.068Z,7.87
2018-02-15T13:32:54.541Z,5.20
2018-02-15T13:35:22.761Z,4.37
2018-02-15T13:37:50.216Z,3.30
2018-02-15T13:40:17.686Z,4.40
2018-02-15T13:42:45.131Z,5.37
2018-02-15T13:45:12.590Z,3.80
2018-02-15T13:47:40.052Z,3.50
2018-02-15T13:50:08.273Z,4.93
2018-02-15T13:52:36.545Z,6.00
2018-02-15T13:55:03.978Z,6.30
2018-02-15T13:57:31.440Z,3.10
2018-02-15T13:59:58.894Z,4.50
2018-02-15T14:02:26.362Z,4.53
2018-02-15T14:04:53.815Z,2.70
2018-02-15T14:07:21.275Z,3.37
2018-02-15T14:09:48.743Z,2.27
2018-02-15T14:12:16.958Z,1.90
2018-02-15T14:14:44.418Z,2.53
2018-02-15T14:17:11.876Z,3.10
2018-02-15T14:19:39.338Z,3.47
2018-02-15T14:22:06.789Z,3.07
2018-02-15T14:24:34.249Z,3.80
2018-02-15T14:27:01.706Z,3.97
2018-02-15T14:29:29.168Z,3.10
2018-02-15T14:31:56.625Z,3.10
2018-02-15T14:34:24.095Z,3.73
2018-02-15T14:36:51.549Z,3.10
2018-02-15T14:39:19.009Z,2.30
2018-02-15T14:41:46.465Z,2.40
2018-02-15T14:44:13.946Z,1.83
2018-02-15T14:46:41.407Z,1.97
2018-02-15T14:49:08.857Z,2.07
2018-02-15T14:51:36.316Z,2.70
2018-02-15T14:54:03.764Z,2.30
2018-02-15T14:56:31.226Z,2.33
2018-02-15T14:58:58.680Z,2.30
2018-02-15T15:01:26.146Z,2.57
2018-02-15T15:03:54.379Z,1.90
2018-02-15T15:06:21.830Z,3.40
2018-02-15T15:08:49.289Z,2.23
2018-02-15T15:11:16.751Z,3.40
2018-02-15T15:13:44.222Z,3.17
2018-02-15T15:16:11.669Z,3.30
2018-02-15T15:18:39.130Z,2.90
2018-02-15T15:21:06.581Z,3.00
2018-02-15T15:23:34.037Z,3.33
2018-02-15T15:26:01.804Z,2.87
2018-02-15T15:28:29.261Z,3.73
2018-02-15T15:30:56.761Z,3.77
2018-02-15T15:33:24.989Z,3.40
2018-02-15T15:35:52.455Z,3.73
2018-02-15T15:38:19.910Z,3.67
2018-02-15T15:40:47.389Z,4.77
2018-02-15T15:43:14.830Z,4.60
2018-02-15T15:45:42.289Z,4.80
2018-02-15T15:48:09.767Z,6.30
2018-02-15T15:50:37.231Z,6.00
2018-02-15T15:53:06.302Z,6.73
2018-02-15T15:55:33.765Z,6.70
2018-02-15T15:58:01.231Z,7.03
2018-02-15T16:00:28.943Z,6.17
2018-02-15T16:02:56.417Z,6.10
2018-02-15T16:05:23.871Z,7.03
2018-02-15T16:07:51.369Z,5.77
2018-02-15T16:10:18.822Z,6.40
2018-02-15T16:12:46.371Z,6.40
2018-02-15T16:15:13.884Z,6.67
2018-02-15T16:17:41.418Z,7.80
2018-02-15T16:20:09.641Z,7.80
2018-02-15T16:22:37.218Z,7.63
2018-02-15T16:25:04.687Z,8.33
2018-02-15T16:27:32.142Z,7.90
2018-02-15T16:29:59.646Z,6.97
2018-02-15T16:32:27.148Z,6.67
2018-02-15T16:34:54.631Z,8.10
2018-02-15T16:37:22.137Z,10.73
2018-02-15T16:39:49.600Z,8.50
2018-02-15T16:42:17.113Z,7.50
2018-02-15T16:44:44.565Z,7.40
2018-02-15T16:47:12.126Z,7.20
2018-02-15T16:49:39.584Z,8.63
2018-02-15T16:52:07.912Z,8.30
2018-02-15T16:54:35.373Z,8.63
2018-02-15T16:57:02.913Z,9.00
2018-02-15T16:59:30.370Z,11.50
2018-02-15T17:01:57.830Z,9.23
2018-02-15T17:04:25.286Z,9.37
2018-02-15T17:06:52.758Z,9.03
2018-02-15T17:09:20.223Z,10.70
2018-02-15T17:11:47.776Z,10.13
2018-02-15T17:14:15.245Z,8.50
2018-02-15T17:16:42.799Z,8.27
2018-02-15T17:19:10.250Z,8.93
2018-02-15T17:21:37.826Z,8.27
2018-02-15T17:24:05.295Z,9.60
2018-02-15T17:26:32.807Z,9.23
2018-02-15T17:29:00.337Z,9.37
2018-02-15T17:31:28.598Z,9.87
2018-02-15T17:33:56.074Z,10.23
2018-02-15T17:36:24.305Z,11.40
2018-02-15T17:38:51.776Z,11.40
2018-02-15T17:41:19.238Z,11.90
2018-02-15T17:43:46.791Z,11.80
2018-02-15T17:46:14.253Z,14.47
2018-02-15T17:48:41.729Z,15.03
2018-02-15T17:51:10.078Z,13.67
2018-02-15T17:53:37.616Z,14.33
2018-02-15T17:56:05.138Z,13.67
2018-02-15T17:58:33.568Z,14.67
2018-02-15T18:01:01.122Z,13.90
2018-02-15T18:06:15.518Z,15.30
2018-02-15T18:08:43.011Z,15.10
2018-02-15T18:11:10.472Z,14.63
2018-02-15T18:13:37.938Z,14.97
2018-02-15T18:16:05.572Z,14.77
2018-02-15T18:18:33.053Z,15.07
2018-02-15T18:21:01.346Z,17.03
2018-02-15T18:23:28.893Z,15.00
2018-02-15T18:25:56.543Z,14.80
2018-02-15T18:28:24.020Z,16.50
2018-02-15T18:30:51.711Z,14.67
2018-02-15T18:33:20.193Z,16.70
2018-02-15T18:35:47.718Z,15.83
2018-02-15T18:38:15.316Z,16.17
2018-02-15T18:40:43.555Z,15.80
2018-02-15T18:43:11.247Z,15.60
2018-02-15T18:45:39.596Z,16.57
2018-02-15T18:48:07.101Z,14.47
2018-02-15T18:50:35.329Z,15.93
2018-02-15T18:53:02.793Z,16.03
2018-02-15T18:55:30.298Z,15.10
2018-02-15T18:57:57.766Z,15.90
2018-02-15T19:00:25.331Z,15.20
2018-02-15T19:02:52.918Z,16.07
2018-02-15T19:05:20.394Z,15.50
2018-02-15T19:07:48.021Z,15.57
2018-02-15T19:10:15.612Z,16.33
2018-02-15T19:12:43.197Z,15.33
2018-02-15T19:15:11.445Z,15.87
2018-02-15T19:17:38.965Z,15.13
2018-02-15T19:20:06.441Z,14.37
2018-02-15T19:22:33.992Z,14.33
2018-02-15T19:25:01.457Z,14.70
2018-02-15T19:27:28.944Z,14.13
2018-02-15T19:29:56.401Z,15.63
2018-02-15T19:32:23.875Z,14.80
2018-02-15T19:34:52.106Z,14.17
2018-02-15T19:37:19.566Z,14.97
2018-02-15T19:39:47.042Z,16.87
2018-02-15T19:42:14.510Z,15.80
2018-02-15T19:44:41.988Z,16.90
2018-02-15T19:47:09.470Z,16.23
2018-02-15T19:49:36.939Z,17.57
2018-02-15T19:52:04.405Z,16.33
2018-02-15T19:54:31.869Z,18.70
2018-02-15T19:56:59.340Z,18.97
2018-02-15T19:59:26.823Z,17.73
2018-02-15T20:01:55.050Z,16.90
2018-02-15T20:04:22.526Z,22.37
2018-02-15T20:06:49.994Z,17.13
2018-02-15T20:09:17.466Z,19.97
2018-02-15T20:11:45.698Z,18.00
2018-02-15T20:14:13.162Z,18.73
2018-02-15T20:16:40.634Z,16.20
2018-02-15T20:19:08.096Z,17.80
2018-02-15T20:21:35.578Z,18.27
2018-02-15T20:24:03.822Z,16.77
2018-02-15T20:26:37.078Z,18.80
2018-02-15T20:29:04.550Z,18.83
2018-02-15T20:31:32.007Z,22.60
2018-02-15T20:33:59.474Z,25.33
2018-02-15T20:36:26.933Z,24.37
2018-02-15T20:39:00.078Z,22.33
2018-02-15T20:41:27.547Z,22.83
2018-02-15T20:43:55.014Z,20.73
2018-02-15T20:46:22.473Z,19.83
2018-02-15T20:48:49.946Z,20.20
2018-02-15T20:51:23.249Z,21.00
2018-02-15T20:56:52.630Z,21.33
2018-02-15T20:59:20.118Z,18.73
2018-02-15T21:01:47.600Z,16.97
2018-02-15T21:04:15.077Z,15.77
2018-02-15T21:06:43.477Z,17.80
2018-02-15T21:09:10.948Z,17.30
2018-02-15T21:11:38.418Z,16.60
2018-02-15T21:14:06.173Z,16.93
2018-02-15T21:16:33.637Z,16.53
2018-02-15T21:19:01.109Z,16.10
2018-02-15T21:21:28.570Z,16.37
2018-02-15T21:23:56.048Z,17.63
2018-02-15T21:26:23.512Z,15.37
2018-02-15T21:28:51.745Z,15.33
2018-02-15T21:31:19.209Z,15.47
2018-02-15T21:33:46.676Z,15.57
2018-02-15T21:36:14.142Z,14.43
2018-02-15T21:38:41.605Z,14.60
2018-02-15T21:41:09.071Z,18.10
2018-02-15T21:43:36.550Z,17.00
2018-02-15T21:46:04.014Z,15.90
2018-02-15T21:48:31.496Z,14.67
2018-02-15T21:50:58.971Z,16.97
2018-02-15T21:53:26.434Z,14.73
2018-02-15T21:55:53.929Z,14.03
2018-02-15T21:58:22.162Z,16.47
2018-02-15T22:00:49.624Z,14.53
2018-02-15T22:03:17.082Z,14.30
2018-02-15T22:05:44.549Z,12.50
2018-02-15T22:08:12.016Z,13.47
2018-02-15T22:10:40.254Z,15.87
2018-02-15T22:13:07.724Z,12.73
2018-02-15T22:15:35.190Z,12.83
2018-02-15T22:18:03.426Z,14.13
2018-02-15T22:20:30.897Z,12.70
2018-02-15T22:22:58.359Z,13.93
2018-02-15T22:25:25.831Z,13.50
2018-02-15T22:27:53.307Z,14.33
2018-02-15T22:30:20.776Z,14.67
2018-02-15T22:32:49.022Z,14.53
2018-02-15T22:35:16.489Z,14.83
2018-02-15T22:37:43.957Z,15.27
2018-02-15T22:40:11.418Z,14.30
2018-02-15T22:42:38.885Z,12.73
2018-02-15T22:45:07.119Z,12.60
2018-02-15T22:47:34.573Z,13.20
2018-02-15T22:50:02.051Z,10.70
2018-02-15T22:52:29.509Z,10.60
2018-02-15T22:54:56.996Z,10.40
2018-02-15T22:57:25.242Z,10.70
2018-02-15T22:59:52.745Z,10.67
2018-02-15T23:02:20.212Z,10.93
2018-02-15T23:04:47.667Z,9.70
2018-02-15T23:07:15.137Z,11.53
2018-02-15T23:09:42.617Z,9.23
2018-02-15T23:12:10.086Z,9.43
2018-02-15T23:14:37.571Z,10.30
2018-02-15T23:17:05.799Z,9.87
2018-02-15T23:19:33.277Z,10.00
2018-02-15T23:22:00.742Z,9.83
2018-02-15T23:24:28.213Z,10.00
2018-02-15T23:26:56.491Z,8.57
2018-02-15T23:29:24.745Z,8.37
2018-02-15T23:31:52.215Z,8.50
2018-02-15T23:34:20.910Z,8.27
2018-02-15T23:36:49.126Z,8.30
2018-02-15T23:39:16.593Z,8.10
2018-02-15T23:41:44.048Z,9.20
2018-02-15T23:44:11.528Z,8.70
2018-02-15T23:46:38.989Z,8.23
2018-02-15T23:49:06.466Z,7.77
2018-02-15T23:51:33.930Z,7.13
2018-02-15T23:54:01.402Z,8.30
2018-02-15T23:56:28.871Z,7.50
2018-02-15T23:58:56.343Z,7.63
